createdAt,value
2023-01-27T00:12:13.804Z,-3.15
2023-01-27T00:14:39.901Z,-3.01
2023-01-27T00:17:06.363Z,-2.77
2023-01-27T00:19:33.676Z,-2.54
2023-01-27T00:22:19.657Z,-2.30
2023-01-27T00:24:46.896Z,-2.05
2023-01-27T00:27:14.270Z,-1.83
2023-01-27T00:29:41.427Z,-1.62
2023-01-27T00:32:27.166Z,-1.42
2023-01-27T00:34:54.471Z,-1.22
2023-01-27T00:37:21.844Z,-1.10
2023-01-27T00:39:48.783Z,-1.01
2023-01-27T00:42:16.559Z,-0.87
2023-01-27T00:45:03.883Z,-0.81
2023-01-27T00:47:31.193Z,-0.69
2023-01-27T00:49:58.335Z,-0.64
2023-01-27T00:52:26.232Z,-0.61
2023-01-27T00:54:53.389Z,-0.53
2023-01-27T00:57:20.609Z,-0.52
2023-01-27T00:59:47.621Z,-0.48
2023-01-27T01:02:14.497Z,-0.50
2023-01-27T01:04:41.504Z,-0.40
2023-01-27T01:07:08.798Z,-0.40
2023-01-27T01:09:35.828Z,-0.43
2023-01-27T01:12:03.925Z,-0.41
2023-01-27T01:14:31.077Z,-0.37
2023-01-27T01:16:58.096Z,-0.32
2023-01-27T01:19:26.198Z,-0.38
2023-01-27T01:21:53.227Z,-0.33
2023-01-27T01:24:20.441Z,-0.30
2023-01-27T01:26:47.902Z,-0.29
2023-01-27T01:29:15.327Z,-0.28
2023-01-27T01:31:42.348Z,-0.25
2023-01-27T01:34:10.096Z,-0.25
2023-01-27T01:36:37.292Z,-0.24
2023-01-27T01:39:05.198Z,-0.20
2023-01-27T01:41:32.238Z,-0.20
2023-01-27T01:43:59.444Z,-0.17
2023-01-27T01:46:26.512Z,-0.17
2023-01-27T01:48:58.617Z,-0.20
2023-01-27T01:51:28.440Z,-0.15
2023-01-27T01:54:01.223Z,-0.14
2023-01-27T01:56:50.475Z,-0.14
2023-01-27T01:59:26.014Z,-0.18
2023-01-27T02:01:57.036Z,-0.14
2023-01-27T02:04:28.767Z,-0.17
2023-01-27T02:07:27.488Z,-0.15
2023-01-27T02:09:57.107Z,-0.22
2023-01-27T02:12:24.317Z,-0.16
2023-01-27T02:14:51.278Z,-0.16
2023-01-27T02:17:18.736Z,-0.22
2023-01-27T02:20:04.083Z,-0.16
2023-01-27T02:22:42.233Z,-0.15
2023-01-27T02:25:35.204Z,-0.16
2023-01-27T02:28:04.354Z,-0.21
2023-01-27T02:30:31.627Z,-0.14
2023-01-27T02:32:58.969Z,-0.10
2023-01-27T02:35:38.132Z,-0.11
2023-01-27T02:38:07.550Z,-0.15
2023-01-27T02:40:35.317Z,-0.10
2023-01-27T02:43:05.021Z,-0.09
2023-01-27T02:45:32.054Z,-0.11
2023-01-27T02:47:59.940Z,-0.11
2023-01-27T02:50:27.340Z,-0.13
2023-01-27T02:52:54.304Z,-0.16
2023-01-27T02:55:21.964Z,-0.19
2023-01-27T02:57:51.111Z,-0.19
2023-01-27T03:00:33.681Z,-0.20
2023-01-27T03:03:00.753Z,-0.22
2023-01-27T03:05:27.863Z,-0.21
2023-01-27T03:07:55.083Z,-0.21
2023-01-27T03:10:22.240Z,-0.22
2023-01-27T03:12:50.840Z,-0.22
2023-01-27T03:15:36.784Z,-0.21
2023-01-27T03:18:12.517Z,-0.26
2023-01-27T03:20:41.917Z,-0.24
2023-01-27T03:23:09.759Z,-0.28
2023-01-27T03:25:37.318Z,-0.27
2023-01-27T03:28:04.647Z,-0.27
2023-01-27T03:30:39.393Z,-0.34
2023-01-27T03:33:29.415Z,-0.34
2023-01-27T03:36:21.648Z,-0.36
2023-01-27T03:39:09.278Z,-0.38
2023-01-27T03:41:54.744Z,-0.40
2023-01-27T03:44:44.470Z,-0.37
2023-01-27T03:47:11.408Z,-0.38
2023-01-27T03:49:39.105Z,-0.40
2023-01-27T03:52:06.111Z,-0.38
2023-01-27T03:54:33.050Z,-0.41
2023-01-27T03:57:06.026Z,-0.35
2023-01-27T03:59:34.400Z,-0.32
2023-01-27T07:59:40.072Z,-1.43
2023-01-27T08:02:06.351Z,-1.16
2023-01-27T08:04:43.439Z,-0.86
2023-01-27T08:07:18.952Z,-0.54
2023-01-27T08:09:46.644Z,-0.21
2023-01-27T08:12:14.965Z,0.10
2023-01-27T08:14:42.592Z,0.41
2023-01-27T08:17:10.123Z,0.66
2023-01-27T08:19:37.746Z,0.87
2023-01-27T08:22:05.409Z,1.14
2023-01-27T08:24:33.249Z,1.40
2023-01-27T08:27:00.949Z,1.55
2023-01-27T08:29:29.820Z,1.73
2023-01-27T08:31:59.520Z,1.83
2023-01-27T08:34:27.719Z,2.00
2023-01-27T08:36:55.390Z,2.17
2023-01-27T08:39:23.104Z,2.25
2023-01-27T08:41:50.491Z,2.34
2023-01-27T08:44:18.692Z,2.46
2023-01-27T08:46:46.599Z,2.54
2023-01-27T08:49:16.775Z,2.58
2023-01-27T08:51:44.643Z,2.63
2023-01-27T08:54:12.097Z,2.76
2023-01-27T08:56:39.762Z,2.84
2023-01-27T08:59:07.568Z,2.97
2023-01-27T09:01:35.166Z,3.10
2023-01-27T09:04:02.468Z,3.20
2023-01-27T09:06:30.423Z,3.17
2023-01-27T09:09:11.958Z,3.25
2023-01-27T09:11:45.829Z,3.24
2023-01-27T09:14:14.265Z,3.19
2023-01-27T09:16:42.155Z,3.24
2023-01-27T09:19:10.050Z,3.35
2023-01-27T09:21:37.898Z,3.39
2023-01-27T09:24:05.657Z,3.53
2023-01-27T09:26:33.027Z,3.65
2023-01-27T09:29:00.431Z,3.71
2023-01-27T09:31:28.053Z,3.72
2023-01-27T09:33:55.761Z,3.82
2023-01-27T09:36:23.582Z,3.88
2023-01-27T09:39:03.543Z,3.83
2023-01-27T09:41:56.106Z,3.92
2023-01-27T09:44:44.288Z,3.96
2023-01-27T09:47:41.033Z,3.97
2023-01-27T09:50:32.856Z,3.97
2023-01-27T09:53:41.766Z,3.90
2023-01-27T09:56:20.801Z,3.87
2023-01-27T11:22:06.636Z,5.02
2023-01-27T11:24:52.994Z,5.13
2023-01-27T11:27:26.487Z,5.23
2023-01-27T11:30:22.347Z,5.17
2023-01-27T11:33:13.617Z,5.41
2023-01-27T11:35:42.127Z,5.37
2023-01-27T11:38:17.436Z,5.55
2023-01-27T11:40:46.224Z,5.32
2023-01-27T11:43:17.687Z,5.45
2023-01-27T11:45:49.289Z,5.56
2023-01-27T11:48:20.619Z,5.74
2023-01-27T11:50:49.302Z,5.95
2023-01-27T11:53:40.117Z,6.19
2023-01-27T11:56:15.955Z,6.31
2023-01-27T11:58:53.763Z,6.37
2023-01-27T12:01:29.632Z,6.24
2023-01-27T12:04:16.975Z,6.36
2023-01-27T12:07:03.173Z,6.32
2023-01-27T12:09:42.105Z,6.17
2023-01-27T12:12:15.522Z,6.13
2023-01-27T15:57:05.407Z,-3.48
2023-01-27T15:59:57.159Z,-3.36
2023-01-27T16:02:29.577Z,-3.23
2023-01-27T16:05:20.768Z,-3.09
2023-01-27T16:07:53.466Z,-2.99
2023-01-27T16:10:23.675Z,-2.88
2023-01-27T16:12:52.817Z,-2.79
2023-01-27T16:15:36.200Z,-2.69
2023-01-27T16:18:09.531Z,-2.56
2023-01-27T16:20:52.260Z,-2.58
2023-01-27T16:23:44.631Z,-2.45
2023-01-27T16:26:33.500Z,-2.46
2023-01-27T16:29:32.029Z,-2.29
2023-01-27T16:32:20.171Z,-2.28
2023-01-27T16:34:58.301Z,-2.28
2023-01-27T16:37:36.947Z,-2.20
2023-01-27T16:40:18.422Z,-2.21
2023-01-27T16:43:01.692Z,-2.22
2023-01-27T16:45:40.816Z,-2.33
2023-01-27T16:48:38.612Z,-2.21
2023-01-27T16:51:13.144Z,-2.19
2023-01-27T16:53:45.567Z,-2.28
2023-01-27T16:56:36.053Z,-2.26
2023-01-27T16:59:06.440Z,-2.38
2023-01-27T17:01:48.398Z,-2.35
2023-01-27T17:04:20.693Z,-2.22
2023-01-27T17:06:54.079Z,-2.02
2023-01-27T17:09:26.830Z,-1.98
2023-01-27T17:11:55.779Z,-2.02
2023-01-27T17:14:33.480Z,-2.00
2023-01-27T17:17:03.549Z,-2.03
2023-01-27T17:19:34.522Z,-1.83
2023-01-27T17:22:06.836Z,-1.72
2023-01-27T17:24:38.521Z,-1.68
2023-01-27T17:27:29.594Z,-1.68
2023-01-27T17:30:13.019Z,-1.67
2023-01-27T17:32:43.480Z,-1.71
2023-01-27T17:35:28.903Z,-1.83
2023-01-27T17:38:43.343Z,-2.13
2023-01-27T17:41:29.278Z,-2.17
2023-01-27T17:44:01.569Z,-2.15
2023-01-27T17:46:32.400Z,-2.10
2023-01-27T17:49:04.301Z,-2.17
2023-01-27T17:51:45.672Z,-2.17
2023-01-27T17:54:30.262Z,-2.11
2023-01-27T17:57:05.910Z,-2.28
2023-01-27T17:59:35.465Z,-2.27
2023-01-27T18:02:14.690Z,-2.27
2023-01-27T18:04:42.626Z,-2.21
2023-01-27T18:07:11.950Z,-2.36
2023-01-27T18:09:45.367Z,-2.31
2023-01-27T18:12:36.521Z,-2.56
2023-01-27T18:15:37.948Z,-2.47
2023-01-27T18:18:32.581Z,-2.63
2023-01-27T18:20:59.849Z,-2.60
2023-01-27T18:23:38.614Z,-2.56
2023-01-27T18:26:17.845Z,-2.35
2023-01-27T18:28:48.963Z,-2.27
2023-01-27T18:31:26.702Z,-2.13
2023-01-27T18:34:26.438Z,-2.05
2023-01-27T18:37:08.914Z,-2.26
2023-01-27T18:39:38.689Z,-2.13
2023-01-27T18:42:16.354Z,-2.29
2023-01-27T18:44:44.066Z,-2.56
2023-01-27T18:47:13.736Z,-2.41
2023-01-27T18:49:41.654Z,-2.33
2023-01-27T18:52:14.417Z,-2.29
2023-01-27T18:54:42.064Z,-2.27
2023-01-27T18:57:09.185Z,-2.22
2023-01-27T18:59:36.365Z,-2.13
2023-01-27T19:02:05.693Z,-2.42
2023-01-27T19:04:32.995Z,-2.57
2023-01-27T19:07:00.406Z,-2.44
2023-01-27T19:09:27.472Z,-2.33
2023-01-27T19:11:56.801Z,-2.15
2023-01-27T19:14:24.116Z,-2.03
2023-01-27T19:16:51.145Z,-2.15
2023-01-27T19:19:18.267Z,-2.11
2023-01-27T19:21:45.378Z,-2.24
2023-01-27T19:24:12.755Z,-2.31
2023-01-27T19:26:39.712Z,-2.20
2023-01-27T19:29:07.080Z,-2.00
2023-01-27T19:31:34.680Z,-2.06
2023-01-27T19:34:02.506Z,-1.95
2023-01-27T19:36:42.423Z,-1.88
2023-01-27T19:39:17.440Z,-2.03
2023-01-27T19:41:48.755Z,-1.93
